createdAt,value
2019-03-18T00:00:29.241Z,26.94
2019-03-18T00:01:29.243Z,26.97
2019-03-18T00:02:29.248Z,26.92
2019-03-18T00:03:29.249Z,26.92
2019-03-18T00:04:29.252Z,26.91
2019-03-18T00:05:29.260Z,26.89
2019-03-18T00:06:29.267Z,26.94
2019-03-18T00:07:29.260Z,26.89
2019-03-18T00:08:29.264Z,26.89
2019-03-18T00:09:29.266Z,26.95
2019-03-18T00:10:29.272Z,26.97
2019-03-18T00:11:29.271Z,26.97
2019-03-18T00:12:29.275Z,26.92
2019-03-18T00:13:29.278Z,26.95
2019-03-18T00:14:29.279Z,26.95
2019-03-18T00:15:29.282Z,26.91
2019-03-18T00:16:29.288Z,26.91
2019-03-18T00:17:29.287Z,26.97
2019-03-18T00:18:29.291Z,26.97
2019-03-18T00:19:29.293Z,26.95
2019-03-18T00:20:29.298Z,26.95
2019-03-18T00:21:29.297Z,26.89
2019-03-18T00:22:29.304Z,26.89
2019-03-18T00:23:29.304Z,26.95
2019-03-18T00:24:29.375Z,26.97
2019-03-18T00:25:29.308Z,26.91
2019-03-18T00:26:29.311Z,26.95
2019-03-18T00:27:29.314Z,27.00
2019-03-18T00:28:29.317Z,26.95
2019-03-18T00:29:29.324Z,26.91
2019-03-18T00:30:29.326Z,26.95
2019-03-18T00:31:29.325Z,26.94
2019-03-18T00:32:29.328Z,26.92
2019-03-18T00:33:29.330Z,26.89
2019-03-18T00:34:29.334Z,26.95
2019-03-18T00:35:29.336Z,26.92
2019-03-18T00:36:29.339Z,26.92
2019-03-18T00:37:29.341Z,26.94
2019-03-18T00:38:29.344Z,26.94
2019-03-18T00:39:29.347Z,26.94
2019-03-18T00:40:29.350Z,26.95
2019-03-18T00:41:29.351Z,26.91
2019-03-18T00:42:29.355Z,26.92
2019-03-18T00:43:29.359Z,26.94
2019-03-18T00:44:29.361Z,26.97
2019-03-18T00:45:29.368Z,26.94
2019-03-18T00:46:29.378Z,26.92
2019-03-18T00:47:29.369Z,26.92
2019-03-18T00:48:29.371Z,26.97
2019-03-18T00:49:29.376Z,26.97
2019-03-18T00:50:29.381Z,26.95
2019-03-18T00:51:29.379Z,26.91
2019-03-18T00:52:29.381Z,26.87
2019-03-18T00:53:29.384Z,26.91
2019-03-18T00:54:29.387Z,26.92
2019-03-18T00:55:29.390Z,26.89
2019-03-18T00:56:29.393Z,26.92
2019-03-18T00:57:29.397Z,26.92
2019-03-18T00:58:29.395Z,26.95
2019-03-18T00:59:29.401Z,26.94
2019-03-18T01:00:29.404Z,26.92
2019-03-18T01:01:29.407Z,26.92
2019-03-18T01:02:29.409Z,26.94
2019-03-18T01:03:29.410Z,26.97
2019-03-18T01:04:29.414Z,26.91
2019-03-18T01:05:29.416Z,26.94
2019-03-18T01:06:29.418Z,26.88
2019-03-18T01:07:29.422Z,26.92
2019-03-18T01:08:29.426Z,26.88
2019-03-18T01:09:29.430Z,26.92
2019-03-18T01:10:29.431Z,26.89
2019-03-18T01:11:29.439Z,26.88
2019-03-18T01:12:29.437Z,26.89
2019-03-18T01:13:29.435Z,26.89
2019-03-18T01:14:29.443Z,26.89
2019-03-18T01:15:29.444Z,26.84
2019-03-18T01:16:29.444Z,26.87
2019-03-18T01:17:29.448Z,26.92
2019-03-18T01:18:29.452Z,26.85
2019-03-18T01:19:29.454Z,26.88
2019-03-18T01:20:29.457Z,26.91
2019-03-18T01:21:29.465Z,26.84
2019-03-18T01:22:29.462Z,26.85
2019-03-18T01:23:29.465Z,26.88
2019-03-18T01:24:29.469Z,26.88
2019-03-18T01:25:29.470Z,26.88
2019-03-18T01:26:29.471Z,26.82
2019-03-18T01:27:29.477Z,26.82
2019-03-18T01:28:29.480Z,26.94
2019-03-18T01:29:29.485Z,26.88
2019-03-18T01:30:29.485Z,26.87
2019-03-18T01:31:29.486Z,26.91
2019-03-18T01:32:29.496Z,26.89
2019-03-18T01:33:29.491Z,26.91
2019-03-18T01:34:29.492Z,26.88
2019-03-18T01:35:29.500Z,26.88
2019-03-18T01:36:29.500Z,26.82
2019-03-18T01:37:29.521Z,26.80
2019-03-18T01:38:29.505Z,26.84
2019-03-18T01:39:29.511Z,26.89
2019-03-18T01:40:29.537Z,26.85
2019-03-18T01:41:29.519Z,26.84
2019-03-18T01:42:29.520Z,26.87
2019-03-18T01:43:29.519Z,26.77
2019-03-18T01:44:29.522Z,26.84
2019-03-18T01:45:40.092Z,26.76
2019-03-18T01:46:29.535Z,26.82
2019-03-18T01:47:29.534Z,26.87
2019-03-18T01:48:29.532Z,26.85
2019-03-18T01:49:29.534Z,26.81
2019-03-18T01:50:29.537Z,26.81
2019-03-18T01:51:29.540Z,26.84
2019-03-18T01:52:29.543Z,26.73
2019-03-18T01:53:29.545Z,26.81
2019-03-18T01:54:29.547Z,26.76
2019-03-18T01:55:29.551Z,26.88
2019-03-18T01:56:29.553Z,26.87
2019-03-18T01:57:29.556Z,26.81
2019-03-18T01:58:29.558Z,26.80
2019-03-18T01:59:29.561Z,26.81
2019-03-18T02:00:29.569Z,26.81
2019-03-18T02:01:29.569Z,26.84
2019-03-18T02:02:29.573Z,26.80
2019-03-18T02:03:29.573Z,26.75
2019-03-18T02:04:29.576Z,26.76
2019-03-18T02:05:29.580Z,26.85
2019-03-18T02:06:29.584Z,26.82
2019-03-18T02:07:29.588Z,26.85
2019-03-18T02:08:29.584Z,26.87
2019-03-18T02:09:29.587Z,26.77
2019-03-18T02:10:29.590Z,26.82
2019-03-18T02:11:29.591Z,26.72
2019-03-18T02:12:29.597Z,26.82
2019-03-18T02:13:29.603Z,26.85
2019-03-18T02:14:29.601Z,26.80
2019-03-18T02:15:29.605Z,26.84
2019-03-18T02:16:29.607Z,26.80
2019-03-18T02:17:29.628Z,26.88
2019-03-18T02:18:29.611Z,26.85
2019-03-18T02:19:29.616Z,26.81
2019-03-18T02:20:29.621Z,26.84
2019-03-18T02:21:29.688Z,26.84
2019-03-18T02:22:29.622Z,26.82
2019-03-18T02:23:29.625Z,26.76
2019-03-18T02:24:29.628Z,26.85
2019-03-18T02:25:29.634Z,26.84
2019-03-18T02:26:29.634Z,26.80
2019-03-18T02:27:29.636Z,26.73
2019-03-18T02:28:29.651Z,26.77
2019-03-18T02:29:29.641Z,26.81
2019-03-18T02:30:29.645Z,26.81
2019-03-18T02:31:29.645Z,26.84
2019-03-18T02:32:29.651Z,26.84
2019-03-18T02:33:29.652Z,26.88
2019-03-18T02:34:29.656Z,26.80
2019-03-18T02:35:29.657Z,26.75
2019-03-18T02:36:29.667Z,26.80
2019-03-18T02:37:29.662Z,26.87
2019-03-18T02:38:29.671Z,26.81
2019-03-18T02:39:29.668Z,26.88
2019-03-18T02:40:29.671Z,26.76
2019-03-18T02:41:29.701Z,26.81
2019-03-18T02:42:29.680Z,26.84
2019-03-18T02:43:29.682Z,26.81
2019-03-18T02:44:29.681Z,26.87
2019-03-18T02:45:29.684Z,26.81
2019-03-18T02:46:29.688Z,26.87
2019-03-18T02:47:29.690Z,26.77
2019-03-18T02:48:29.698Z,26.85
2019-03-18T02:49:29.700Z,26.81
2019-03-18T02:50:29.698Z,26.82
2019-03-18T02:51:29.701Z,26.81
2019-03-18T02:52:29.703Z,26.85
2019-03-18T02:53:29.703Z,26.76
2019-03-18T02:54:29.717Z,26.75
2019-03-18T02:55:29.717Z,26.88
2019-03-18T02:56:29.717Z,26.81
2019-03-18T02:57:29.717Z,26.82
2019-03-18T02:58:29.718Z,26.81
2019-03-18T02:59:29.721Z,26.77
2019-03-18T03:00:29.724Z,26.87
2019-03-18T03:01:29.729Z,26.75
2019-03-18T03:02:29.728Z,26.82
2019-03-18T03:03:29.731Z,26.80
2019-03-18T03:04:29.735Z,26.84
2019-03-18T03:05:29.737Z,26.76
2019-03-18T03:06:29.740Z,26.80
2019-03-18T03:07:29.744Z,26.76
2019-03-18T03:08:29.750Z,26.76
2019-03-18T03:09:29.747Z,26.85
2019-03-18T03:10:29.750Z,26.81
2019-03-18T03:11:29.753Z,26.77
2019-03-18T03:12:29.756Z,26.76
2019-03-18T03:13:29.761Z,26.87
2019-03-18T03:14:29.767Z,26.82
2019-03-18T03:15:29.764Z,26.80
2019-03-18T03:16:29.773Z,26.81
2019-03-18T03:17:29.768Z,26.76
2019-03-18T03:18:29.779Z,26.85
2019-03-18T03:19:29.775Z,26.80
2019-03-18T03:20:29.795Z,26.89
2019-03-18T03:21:29.787Z,26.82
2019-03-18T03:22:29.782Z,26.81
2019-03-18T03:23:29.785Z,26.77
2019-03-18T03:24:29.795Z,26.72
2019-03-18T03:25:29.796Z,26.76
2019-03-18T03:26:29.809Z,26.75
2019-03-18T03:27:29.798Z,26.76
2019-03-18T03:28:29.799Z,26.76
2019-03-18T03:29:29.910Z,26.67
2019-03-18T03:30:29.809Z,26.70
2019-03-18T03:31:29.810Z,26.73
2019-03-18T03:32:29.809Z,26.81
2019-03-18T03:33:29.811Z,26.76
2019-03-18T03:34:29.815Z,26.81
2019-03-18T03:35:29.817Z,26.75
2019-03-18T03:36:29.830Z,26.69
2019-03-18T03:37:29.827Z,26.73
2019-03-18T03:38:29.834Z,26.84
2019-03-18T03:39:29.831Z,26.73
2019-03-18T03:40:29.831Z,26.67
2019-03-18T03:41:29.845Z,26.81
2019-03-18T03:42:29.834Z,26.81
2019-03-18T03:43:29.838Z,26.67
2019-03-18T03:44:29.844Z,26.76
2019-03-18T03:45:29.842Z,26.70
2019-03-18T03:46:42.193Z,26.80
2019-03-18T03:47:29.849Z,26.76
2019-03-18T03:48:29.850Z,26.72
2019-03-18T03:49:29.856Z,26.72
2019-03-18T03:50:29.855Z,26.75
2019-03-18T03:51:29.857Z,26.81
2019-03-18T03:52:29.863Z,26.66
2019-03-18T03:53:31.156Z,26.73
2019-03-18T03:54:29.867Z,26.77
2019-03-18T03:55:29.946Z,26.70
2019-03-18T03:56:29.872Z,26.73
2019-03-18T03:57:29.880Z,26.82
2019-03-18T03:58:29.878Z,26.75
2019-03-18T03:59:29.899Z,26.72
2019-03-18T04:00:29.893Z,26.75
2019-03-18T04:01:29.894Z,26.75
2019-03-18T04:02:29.904Z,26.69
2019-03-18T04:03:38.273Z,26.76
2019-03-18T04:04:29.894Z,26.76
2019-03-18T04:05:29.902Z,26.75
2019-03-18T04:06:29.896Z,26.70
2019-03-18T04:07:29.909Z,26.76
2019-03-18T04:08:29.907Z,26.76
2019-03-18T04:09:29.907Z,26.77
2019-03-18T04:10:29.916Z,26.73
2019-03-18T04:11:29.916Z,26.81
2019-03-18T04:12:29.924Z,26.73
2019-03-18T04:13:29.917Z,26.77
2019-03-18T04:14:29.920Z,26.76
2019-03-18T04:15:29.922Z,26.77
2019-03-18T04:16:29.926Z,26.73
2019-03-18T04:17:29.928Z,26.81
2019-03-18T04:18:29.930Z,26.72
2019-03-18T04:19:29.938Z,26.70
2019-03-18T04:20:29.940Z,26.76
2019-03-18T04:21:29.939Z,26.77
2019-03-18T04:22:29.940Z,26.72
2019-03-18T04:23:29.948Z,26.66
2019-03-18T04:24:29.957Z,26.72
2019-03-18T04:25:29.955Z,26.72
2019-03-18T04:26:29.952Z,26.67
2019-03-18T04:27:29.979Z,26.75
2019-03-18T04:28:29.972Z,26.84
2019-03-18T04:29:29.959Z,26.77
2019-03-18T04:30:29.962Z,26.75
2019-03-18T04:31:29.963Z,26.77
2019-03-18T04:32:29.975Z,26.75
2019-03-18T04:33:29.975Z,26.73
2019-03-18T04:34:29.981Z,26.76
2019-03-18T04:35:29.976Z,26.73
2019-03-18T04:36:29.978Z,26.75
2019-03-18T04:37:29.979Z,26.77
2019-03-18T04:38:29.980Z,26.82
2019-03-18T04:39:29.993Z,26.77
2019-03-18T04:40:29.993Z,26.80
2019-03-18T04:41:29.989Z,26.85
2019-03-18T04:42:29.993Z,26.87
2019-03-18T04:43:29.999Z,26.76
2019-03-18T04:44:29.998Z,26.75
2019-03-18T04:45:30.001Z,26.80
2019-03-18T04:46:30.002Z,26.77
2019-03-18T04:47:30.006Z,26.82
2019-03-18T04:48:30.010Z,26.76
2019-03-18T04:49:30.012Z,26.76
2019-03-18T04:50:30.014Z,26.76
2019-03-18T04:51:30.016Z,26.77
2019-03-18T04:52:30.019Z,26.82
2019-03-18T04:53:30.021Z,26.84
2019-03-18T04:54:30.023Z,26.82
2019-03-18T04:55:30.027Z,26.81
2019-03-18T04:56:30.071Z,26.81
2019-03-18T04:57:30.032Z,26.75
2019-03-18T04:58:30.035Z,26.80
2019-03-18T04:59:30.037Z,26.76
2019-03-18T05:00:30.045Z,26.82
2019-03-18T05:01:30.042Z,26.77
2019-03-18T05:02:30.046Z,26.87
2019-03-18T05:03:30.053Z,26.85
2019-03-18T05:04:30.053Z,26.80
2019-03-18T05:05:30.132Z,26.77
2019-03-18T05:06:30.060Z,26.77
2019-03-18T05:07:30.059Z,26.81
2019-03-18T05:08:30.062Z,26.77
2019-03-18T05:09:30.065Z,26.80
2019-03-18T05:10:30.065Z,26.82
2019-03-18T05:11:30.069Z,26.80
2019-03-18T05:12:30.072Z,26.84
2019-03-18T05:13:30.077Z,26.80
2019-03-18T05:14:30.078Z,26.82
2019-03-18T05:15:30.082Z,26.73
2019-03-18T05:16:30.081Z,26.81
2019-03-18T05:17:30.084Z,26.84
2019-03-18T05:18:30.089Z,26.82
2019-03-18T05:19:30.091Z,26.87
2019-03-18T05:20:30.093Z,26.82
2019-03-18T05:21:30.095Z,26.84
2019-03-18T05:22:30.098Z,26.80
2019-03-18T05:23:30.101Z,26.85
2019-03-18T05:24:30.104Z,26.81
2019-03-18T05:25:30.105Z,26.77
2019-03-18T05:26:30.111Z,26.87
2019-03-18T05:27:30.112Z,26.84
2019-03-18T05:28:30.114Z,26.76
2019-03-18T05:29:30.116Z,26.87
2019-03-18T05:30:30.119Z,26.77
2019-03-18T05:31:30.120Z,26.77
2019-03-18T05:32:30.129Z,26.85
2019-03-18T05:33:30.139Z,26.80
2019-03-18T05:34:30.130Z,26.76
2019-03-18T05:35:30.133Z,26.80
2019-03-18T05:36:30.135Z,26.87
2019-03-18T05:37:30.141Z,26.87
2019-03-18T05:38:30.150Z,26.87
2019-03-18T05:39:30.145Z,26.89
2019-03-18T05:40:30.232Z,26.91
2019-03-18T05:41:30.149Z,26.91
2019-03-18T05:42:30.151Z,26.97
2019-03-18T05:43:30.153Z,26.95
2019-03-18T05:44:30.154Z,26.92
2019-03-18T05:45:30.159Z,27.02
2019-03-18T05:46:30.161Z,26.94
2019-03-18T05:47:39.303Z,26.92
2019-03-18T05:48:30.167Z,26.94
2019-03-18T05:49:30.181Z,27.04
2019-03-18T05:50:30.172Z,27.07
2019-03-18T05:51:30.175Z,27.04
2019-03-18T05:52:30.180Z,27.04
2019-03-18T05:53:30.179Z,27.12
2019-03-18T05:54:30.188Z,27.13
2019-03-18T05:55:30.186Z,27.13
2019-03-18T05:56:30.187Z,27.18
2019-03-18T05:57:30.194Z,27.24
2019-03-18T05:58:30.194Z,27.18
2019-03-18T05:59:30.197Z,27.21
2019-03-18T06:00:30.204Z,27.17
2019-03-18T06:01:30.202Z,27.22
2019-03-18T06:02:30.202Z,27.21
2019-03-18T06:03:30.206Z,27.19
2019-03-18T06:04:30.211Z,27.22
2019-03-18T06:05:30.221Z,27.24
2019-03-18T06:06:30.215Z,27.27
2019-03-18T06:07:30.219Z,27.25
2019-03-18T06:08:30.224Z,27.21
2019-03-18T06:09:30.224Z,27.19
2019-03-18T06:10:30.231Z,27.18
2019-03-18T06:11:30.231Z,27.19
2019-03-18T06:12:30.232Z,27.24
2019-03-18T06:13:30.235Z,27.28
2019-03-18T06:14:30.239Z,27.25
2019-03-18T06:15:30.241Z,27.22
2019-03-18T06:16:30.245Z,27.25
2019-03-18T06:17:30.307Z,27.21
2019-03-18T06:18:30.249Z,27.36
2019-03-18T06:19:30.252Z,27.29
2019-03-18T06:20:30.255Z,27.28
2019-03-18T06:21:30.258Z,27.32
2019-03-18T06:22:30.262Z,27.28
2019-03-18T06:23:30.266Z,27.31
2019-03-18T06:24:30.267Z,27.34
2019-03-18T06:25:30.269Z,27.34
2019-03-18T06:26:30.273Z,27.40
2019-03-18T06:27:30.275Z,27.34
2019-03-18T06:28:30.279Z,27.40
2019-03-18T06:29:30.283Z,27.34
2019-03-18T06:30:30.287Z,27.34
2019-03-18T06:31:30.286Z,27.36
2019-03-18T06:32:30.291Z,27.40
2019-03-18T06:33:30.290Z,27.39
2019-03-18T06:34:30.295Z,27.44
2019-03-18T06:35:30.299Z,27.40
2019-03-18T06:36:30.301Z,27.44
2019-03-18T06:37:30.303Z,27.39
2019-03-18T06:38:30.308Z,27.47
2019-03-18T06:39:30.310Z,27.50
2019-03-18T06:40:30.313Z,27.41
2019-03-18T06:41:30.317Z,27.46
2019-03-18T06:42:30.320Z,27.43
2019-03-18T06:43:30.322Z,27.40
2019-03-18T06:44:30.326Z,27.43
2019-03-18T06:45:30.339Z,27.46
2019-03-18T06:46:30.338Z,27.41
2019-03-18T06:47:30.338Z,27.44
2019-03-18T06:48:30.343Z,27.50
2019-03-18T06:49:30.344Z,27.46
2019-03-18T06:50:30.346Z,27.51
2019-03-18T06:51:30.358Z,27.47
2019-03-18T06:52:30.349Z,27.49
2019-03-18T06:53:30.351Z,27.41
2019-03-18T06:54:30.354Z,27.50
2019-03-18T06:55:30.360Z,27.50
2019-03-18T06:56:30.367Z,27.57
2019-03-18T06:57:30.363Z,27.55
2019-03-18T06:58:30.366Z,27.55
2019-03-18T06:59:30.369Z,27.51
2019-03-18T07:00:30.377Z,27.57
2019-03-18T07:01:30.375Z,27.57
2019-03-18T07:02:30.379Z,27.59
2019-03-18T07:03:30.380Z,27.59
2019-03-18T07:04:30.385Z,27.66
2019-03-18T07:05:30.387Z,27.57
2019-03-18T07:06:30.388Z,27.66
2019-03-18T07:07:30.393Z,27.65
2019-03-18T07:08:30.398Z,27.63
2019-03-18T07:09:30.399Z,27.65
2019-03-18T07:10:30.403Z,27.62
2019-03-18T07:11:30.407Z,27.59
2019-03-18T07:12:30.410Z,27.55
2019-03-18T07:13:30.413Z,27.63
2019-03-18T07:14:30.417Z,27.51
2019-03-18T07:15:30.468Z,27.57
2019-03-18T07:16:30.425Z,27.55
2019-03-18T07:17:30.434Z,27.54
2019-03-18T07:18:30.427Z,27.63
2019-03-18T07:19:30.434Z,27.60
2019-03-18T07:20:30.433Z,27.57
2019-03-18T07:21:30.436Z,27.57
2019-03-18T07:22:30.440Z,27.57
2019-03-18T07:23:30.443Z,27.57
2019-03-18T07:24:30.447Z,27.57
2019-03-18T07:25:30.449Z,27.59
2019-03-18T07:26:30.452Z,27.60
2019-03-18T07:27:30.454Z,27.49
2019-03-18T07:28:30.458Z,27.57
2019-03-18T07:29:30.463Z,27.62
2019-03-18T07:30:30.464Z,27.51
2019-03-18T07:31:30.467Z,27.63
2019-03-18T07:32:30.472Z,27.59
2019-03-18T07:33:30.473Z,27.57
2019-03-18T07:34:30.484Z,27.67
2019-03-18T07:35:30.484Z,27.69
2019-03-18T07:36:30.481Z,27.60
2019-03-18T07:37:30.483Z,27.60
2019-03-18T07:38:30.488Z,27.62
2019-03-18T07:39:30.491Z,27.50
2019-03-18T07:40:30.495Z,27.62
2019-03-18T07:41:30.514Z,27.60
2019-03-18T07:42:30.502Z,27.51
2019-03-18T07:43:30.503Z,27.63
2019-03-18T07:44:30.508Z,27.57
2019-03-18T07:45:30.514Z,27.59
2019-03-18T07:46:30.512Z,27.69
2019-03-18T07:47:30.517Z,27.67
2019-03-18T07:48:31.590Z,27.66
2019-03-18T07:49:30.521Z,27.67
2019-03-18T07:50:30.526Z,27.69
2019-03-18T07:51:30.533Z,27.74
2019-03-18T07:52:30.570Z,27.70
2019-03-18T07:53:30.535Z,27.70
2019-03-18T07:54:32.935Z,27.66
2019-03-18T07:55:30.543Z,27.65
2019-03-18T07:56:30.544Z,27.59
2019-03-18T07:57:32.761Z,27.65
2019-03-18T07:58:30.551Z,27.57
2019-03-18T07:59:30.556Z,27.65
2019-03-18T08:00:30.557Z,27.59
2019-03-18T08:01:30.559Z,27.66
2019-03-18T08:02:30.563Z,27.62
2019-03-18T08:03:30.567Z,27.66
2019-03-18T08:04:37.403Z,27.69
2019-03-18T08:05:30.571Z,27.63
2019-03-18T08:06:30.646Z,27.62
2019-03-18T08:07:30.578Z,27.62
2019-03-18T08:08:30.654Z,27.60
2019-03-18T08:09:30.583Z,27.75
2019-03-18T08:10:30.601Z,27.69
2019-03-18T08:11:30.595Z,27.62
2019-03-18T08:12:30.593Z,27.70
2019-03-18T08:13:30.596Z,27.67
2019-03-18T08:14:30.604Z,27.67
2019-03-18T08:15:30.651Z,27.65
2019-03-18T08:16:30.606Z,27.60
2019-03-18T08:17:30.607Z,27.65
2019-03-18T08:18:42.477Z,27.66
2019-03-18T08:19:30.619Z,27.65
2019-03-18T08:20:30.619Z,27.62
2019-03-18T08:21:30.621Z,27.62
2019-03-18T08:22:30.624Z,27.66
2019-03-18T08:23:30.628Z,27.66
2019-03-18T08:24:30.631Z,27.66
2019-03-18T08:25:30.634Z,27.63
2019-03-18T08:26:30.652Z,27.63
2019-03-18T08:27:30.638Z,27.65
2019-03-18T08:28:30.644Z,27.72
2019-03-18T08:29:30.646Z,27.67
2019-03-18T08:30:30.649Z,27.69
2019-03-18T08:31:30.713Z,27.69
2019-03-18T08:32:30.657Z,27.74
2019-03-18T08:33:30.661Z,27.72
2019-03-18T08:34:30.662Z,27.70
2019-03-18T08:35:30.670Z,27.74
2019-03-18T08:36:30.682Z,27.70
2019-03-18T08:37:30.675Z,27.79
2019-03-18T08:38:30.674Z,27.78
2019-03-18T08:39:30.676Z,27.77
2019-03-18T08:40:30.681Z,27.74
2019-03-18T08:41:30.683Z,27.77
2019-03-18T08:42:30.685Z,27.81
2019-03-18T08:43:30.688Z,27.82
2019-03-18T08:44:30.693Z,27.87
2019-03-18T08:45:30.697Z,27.87
2019-03-18T08:46:30.699Z,27.88
2019-03-18T08:47:30.703Z,27.79
2019-03-18T08:48:30.706Z,27.74
2019-03-18T08:49:30.709Z,27.81
2019-03-18T08:50:30.712Z,27.82
2019-03-18T08:51:30.717Z,27.78
2019-03-18T08:52:30.719Z,27.75
2019-03-18T08:53:30.720Z,27.87
2019-03-18T08:54:30.724Z,27.81
2019-03-18T08:55:30.728Z,27.78
2019-03-18T08:56:30.740Z,27.85
2019-03-18T08:57:30.744Z,27.84
2019-03-18T08:58:30.738Z,27.93
2019-03-18T08:59:30.743Z,27.81
2019-03-18T09:00:30.747Z,27.93
2019-03-18T09:01:30.746Z,27.90
2019-03-18T09:02:30.751Z,27.94
2019-03-18T09:03:30.753Z,27.87
2019-03-18T09:04:30.757Z,27.90
2019-03-18T09:05:30.767Z,27.92
2019-03-18T09:06:30.769Z,27.94
2019-03-18T09:07:30.770Z,27.93
2019-03-18T09:08:30.772Z,27.90
2019-03-18T09:09:30.774Z,27.79
2019-03-18T09:10:30.775Z,27.96
2019-03-18T09:11:30.779Z,27.88
2019-03-18T09:12:30.783Z,27.87
2019-03-18T09:13:32.120Z,27.92
2019-03-18T09:14:30.788Z,27.93
2019-03-18T09:15:30.793Z,27.88
2019-03-18T09:16:30.798Z,27.94
2019-03-18T09:17:30.801Z,27.96
2019-03-18T09:18:30.802Z,27.94
2019-03-18T09:19:30.806Z,27.87
2019-03-18T09:20:30.811Z,27.88
2019-03-18T09:21:30.811Z,27.94
2019-03-18T09:22:30.819Z,27.93
2019-03-18T09:23:30.819Z,27.93
2019-03-18T09:24:30.823Z,27.97
2019-03-18T09:25:30.828Z,27.99
2019-03-18T09:26:30.829Z,27.96
2019-03-18T09:27:30.835Z,27.88
2019-03-18T09:28:30.835Z,27.99
2019-03-18T09:29:30.841Z,27.93
2019-03-18T09:30:30.842Z,27.94
2019-03-18T09:31:30.845Z,27.87
2019-03-18T09:32:30.849Z,28.00
2019-03-18T09:33:30.852Z,27.90
2019-03-18T09:34:30.855Z,27.96
2019-03-18T09:35:30.858Z,27.94
2019-03-18T09:36:30.862Z,27.92
2019-03-18T09:37:30.864Z,27.97
2019-03-18T09:38:30.868Z,27.87
2019-03-18T09:39:30.873Z,27.87
2019-03-18T09:40:30.874Z,27.90
2019-03-18T09:41:30.877Z,27.93
2019-03-18T09:42:30.880Z,27.87
2019-03-18T09:43:30.884Z,27.84
2019-03-18T09:44:30.891Z,27.90
2019-03-18T09:45:30.893Z,27.96
2019-03-18T09:46:30.893Z,27.97
2019-03-18T09:47:30.899Z,27.93
2019-03-18T09:48:30.903Z,27.92
2019-03-18T09:49:30.902Z,27.88
2019-03-18T09:50:30.908Z,27.93
2019-03-18T09:51:30.913Z,27.93
2019-03-18T09:52:30.916Z,27.93
2019-03-18T09:53:30.920Z,27.99
2019-03-18T09:54:30.925Z,27.88
2019-03-18T09:55:30.925Z,27.90
2019-03-18T09:56:30.932Z,27.88
2019-03-18T09:57:30.931Z,27.85
2019-03-18T09:58:30.934Z,27.90
2019-03-18T09:59:30.941Z,27.92
2019-03-18T10:00:30.949Z,27.90
2019-03-18T10:01:30.945Z,27.88
2019-03-18T10:02:31.006Z,27.97
2019-03-18T10:03:30.956Z,27.90
2019-03-18T10:04:30.953Z,27.88
2019-03-18T10:05:30.955Z,27.96
2019-03-18T10:06:30.958Z,27.97
2019-03-18T10:07:30.964Z,27.96
2019-03-18T10:08:30.968Z,27.90
2019-03-18T10:09:30.969Z,27.88
2019-03-18T10:10:30.972Z,27.88
2019-03-18T10:11:30.976Z,27.94
2019-03-18T10:12:30.980Z,27.97
2019-03-18T10:13:30.983Z,27.96
2019-03-18T10:14:30.986Z,27.99
2019-03-18T10:15:30.989Z,27.96
2019-03-18T10:16:30.990Z,28.04
2019-03-18T10:17:30.996Z,27.92
2019-03-18T10:18:31.000Z,27.97
2019-03-18T10:19:33.715Z,27.94
2019-03-18T10:20:31.008Z,27.94
2019-03-18T10:21:31.008Z,28.04
2019-03-18T10:22:31.010Z,28.11
2019-03-18T10:23:31.017Z,27.97
2019-03-18T10:24:31.020Z,28.07
2019-03-18T10:25:31.022Z,28.07
2019-03-18T10:26:31.024Z,28.06
2019-03-18T10:27:31.029Z,28.02
2019-03-18T10:28:31.033Z,27.99
2019-03-18T10:29:31.035Z,27.92
2019-03-18T10:30:33.879Z,27.96
2019-03-18T10:31:31.053Z,28.06
2019-03-18T10:32:31.048Z,27.97
2019-03-18T10:33:31.053Z,28.03
2019-03-18T10:34:31.054Z,28.06
2019-03-18T10:35:31.055Z,27.97
2019-03-18T10:36:31.061Z,28.04
2019-03-18T10:37:31.065Z,28.09
2019-03-18T10:38:31.067Z,28.04
2019-03-18T10:39:31.069Z,28.11
2019-03-18T10:40:31.075Z,28.11
2019-03-18T10:41:31.076Z,28.04
2019-03-18T10:42:31.080Z,27.96
2019-03-18T10:43:31.081Z,28.06
2019-03-18T10:44:31.087Z,28.07
2019-03-18T10:45:31.094Z,28.03
2019-03-18T10:46:31.094Z,28.00
2019-03-18T10:47:31.098Z,28.04
2019-03-18T10:48:31.099Z,28.07
2019-03-18T10:49:31.103Z,28.00
2019-03-18T10:50:31.103Z,28.09
2019-03-18T10:51:32.022Z,28.06
2019-03-18T10:52:31.161Z,27.92
2019-03-18T10:53:31.150Z,28.02
2019-03-18T10:54:31.480Z,27.94
2019-03-18T10:55:31.188Z,27.94
2019-03-18T10:56:31.133Z,27.96
2019-03-18T10:57:31.133Z,28.00
2019-03-18T10:58:31.132Z,27.96
2019-03-18T10:59:31.134Z,27.97
2019-03-18T11:00:31.140Z,27.99
2019-03-18T11:01:31.143Z,27.97
2019-03-18T11:02:31.145Z,27.96
2019-03-18T11:03:31.152Z,27.93
2019-03-18T11:04:31.154Z,27.90
2019-03-18T11:05:31.157Z,27.90
2019-03-18T11:06:31.158Z,27.97
2019-03-18T11:07:31.162Z,27.90
2019-03-18T11:08:31.166Z,27.99
2019-03-18T11:09:31.170Z,27.92
2019-03-18T11:10:31.169Z,27.93
2019-03-18T11:11:31.177Z,27.92
2019-03-18T11:12:31.182Z,27.90
2019-03-18T11:13:31.182Z,28.00
2019-03-18T11:14:31.190Z,27.93
2019-03-18T11:15:31.194Z,27.85
2019-03-18T11:16:31.565Z,27.92
2019-03-18T11:17:31.205Z,27.97
2019-03-18T11:18:31.202Z,27.97
2019-03-18T11:19:31.204Z,28.00
2019-03-18T11:20:31.207Z,28.02
2019-03-18T11:21:31.216Z,27.96
2019-03-18T11:22:31.212Z,27.97
2019-03-18T11:23:31.266Z,28.00
2019-03-18T11:24:31.219Z,27.97
2019-03-18T11:25:31.231Z,28.00
2019-03-18T11:26:31.226Z,28.04
2019-03-18T11:27:31.228Z,27.93
2019-03-18T11:28:31.232Z,27.93
2019-03-18T11:29:31.235Z,28.02
2019-03-18T11:30:31.239Z,27.94
2019-03-18T11:31:31.242Z,28.02
2019-03-18T11:32:31.246Z,28.03
2019-03-18T11:33:31.248Z,27.94
2019-03-18T11:34:31.256Z,28.00
2019-03-18T11:35:31.256Z,27.97
2019-03-18T11:36:31.760Z,28.07
2019-03-18T11:37:31.262Z,27.96
2019-03-18T11:38:32.062Z,27.99
2019-03-18T11:39:31.269Z,28.06
2019-03-18T11:40:31.275Z,28.04
2019-03-18T11:41:31.275Z,28.09
2019-03-18T11:42:31.283Z,28.00
2019-03-18T11:43:31.285Z,28.00
2019-03-18T11:44:31.286Z,28.00
2019-03-18T11:45:31.290Z,27.94
2019-03-18T11:46:31.292Z,28.14
2019-03-18T11:47:31.300Z,28.09
2019-03-18T11:48:31.297Z,28.07
2019-03-18T11:49:39.663Z,27.99
2019-03-18T11:50:31.308Z,28.07
2019-03-18T11:51:31.310Z,28.11
2019-03-18T11:52:32.830Z,28.09
2019-03-18T11:53:31.316Z,28.04
2019-03-18T11:54:31.427Z,28.06
2019-03-18T11:55:31.322Z,28.19
2019-03-18T11:56:31.332Z,28.18
2019-03-18T11:57:31.337Z,28.18
2019-03-18T11:58:31.336Z,28.22
2019-03-18T11:59:31.339Z,28.24
2019-03-18T12:00:31.340Z,28.18
2019-03-18T12:01:31.345Z,28.14
2019-03-18T12:02:31.351Z,28.21
2019-03-18T12:03:31.350Z,28.18
2019-03-18T12:04:32.847Z,28.29
2019-03-18T12:05:31.354Z,28.17
2019-03-18T12:06:31.358Z,28.21
2019-03-18T12:07:31.362Z,28.21
2019-03-18T12:08:31.366Z,28.15
2019-03-18T12:09:31.370Z,28.14
2019-03-18T12:10:31.373Z,28.22
2019-03-18T12:11:31.378Z,28.21
2019-03-18T12:12:31.383Z,28.18
2019-03-18T12:13:31.382Z,28.18
2019-03-18T12:14:31.387Z,28.22
2019-03-18T12:15:31.393Z,28.19
2019-03-18T12:16:31.393Z,28.12
2019-03-18T12:17:31.403Z,28.14
2019-03-18T12:18:31.399Z,28.15
2019-03-18T12:19:31.403Z,28.22
2019-03-18T12:20:33.099Z,28.14
2019-03-18T12:21:31.410Z,28.22
2019-03-18T12:22:31.414Z,28.17
2019-03-18T12:23:31.417Z,28.14
2019-03-18T12:24:31.423Z,28.09
2019-03-18T12:25:33.750Z,28.15
2019-03-18T12:26:31.424Z,28.21
2019-03-18T12:27:31.431Z,28.21
2019-03-18T12:28:31.438Z,28.14
2019-03-18T12:29:31.436Z,28.12
2019-03-18T12:30:31.441Z,28.17
2019-03-18T12:31:31.446Z,28.12
2019-03-18T12:32:31.461Z,28.14
2019-03-18T12:33:31.450Z,28.03
2019-03-18T12:34:31.453Z,28.03
2019-03-18T12:35:31.457Z,28.06
2019-03-18T12:36:31.464Z,28.14
2019-03-18T12:37:31.463Z,28.14
2019-03-18T12:38:31.467Z,28.03
2019-03-18T12:39:31.471Z,28.06
2019-03-18T12:40:31.475Z,28.06
2019-03-18T12:41:31.477Z,28.09
2019-03-18T12:42:31.486Z,28.04
2019-03-18T12:43:31.485Z,28.04
2019-03-18T12:44:31.487Z,28.06
2019-03-18T12:45:31.492Z,28.06
2019-03-18T12:46:31.493Z,27.97
2019-03-18T12:47:31.497Z,27.97
2019-03-18T12:48:31.501Z,27.94
2019-03-18T12:49:31.503Z,27.92
2019-03-18T12:50:48.898Z,27.96
2019-03-18T12:51:31.512Z,27.96
2019-03-18T12:52:31.513Z,27.92